Time;durP1;ratioP1;P1;durP2;ratioP2;P2;SDS_P1;SDS_P2;PMS_P1;PMS_P2;Temp;Humidity;BMP_temperature;BMP_pressure;BME280_temperature;BME280_humidity;BME280_pressure;Samples;Min_cycle;Max_cycle;Signal;HPM_P1;HPM_P2
2022/01/09 00:02:29;;;;;;;3.27;1.90;;;;;;;-5.76;84.16;96747.94;6239842;28;20227;-71
2022/01/09 00:05:31;;;;;;;2.80;2.00;;;;;;;-5.67;85.18;96736.53;6231777;28;20227;-72
2022/01/09 00:08:33;;;;;;;2.57;1.90;;;;;;;-5.74;84.68;96743.63;6254588;28;20243;-72
2022/01/09 00:11:35;;;;;;;2.43;2.00;;;;;;;-5.78;84.84;96742.00;6255705;28;20239;-72
2022/01/09 00:14:37;;;;;;;3.60;2.10;;;;;;;-5.83;84.92;96725.91;6253299;28;20246;-70
2022/01/09 00:17:40;;;;;;;3.00;2.00;;;;;;;-5.88;84.70;96722.66;6246909;28;20809;-72
2022/01/09 00:20:42;;;;;;;2.40;1.93;;;;;;;-5.93;84.68;96716.84;6255907;28;20626;-72
2022/01/09 00:23:47;;;;;;;1.77;1.40;;;;;;;-6.01;84.45;96711.13;6254037;28;20231;-72
2022/01/09 00:26:49;;;;;;;5.23;2.37;;;;;;;-6.03;84.59;96713.72;6255559;28;20605;-72
2022/01/09 00:29:51;;;;;;;2.57;2.10;;;;;;;-6.09;84.51;96700.25;6253703;28;20231;-70
2022/01/09 00:32:53;;;;;;;2.17;1.63;;;;;;;-6.13;85.10;96690.94;6253810;28;20231;-72
2022/01/09 00:35:55;;;;;;;2.63;1.77;;;;;;;-6.18;84.81;96697.94;6234293;28;20314;-72
2022/01/09 00:38:57;;;;;;;2.67;1.87;;;;;;;-6.22;84.89;96698.94;6231045;28;20242;-71
2022/01/09 00:41:59;;;;;;;2.57;1.83;;;;;;;-6.20;84.61;96694.59;6244749;28;20237;-72
2022/01/09 00:45:03;;;;;;;3.20;1.70;;;;;;;-6.26;84.27;96677.63;6255153;28;20227;-72
2022/01/09 00:48:05;;;;;;;3.10;1.57;;;;;;;-6.27;84.82;96673.38;6223213;28;20316;-72
2022/01/09 00:51:07;;;;;;;2.10;1.90;;;;;;;-6.28;84.35;96668.28;6255990;28;20242;-72
2022/01/09 00:54:09;;;;;;;2.93;1.53;;;;;;;-6.28;84.48;96669.13;6255915;28;20286;-71
2022/01/09 00:57:11;;;;;;;2.47;1.83;;;;;;;-6.24;84.60;96665.59;6256342;28;20208;-71
2022/01/09 01:00:13;;;;;;;3.97;1.93;;;;;;;-6.29;84.22;96659.78;6253547;28;20230;-72
2022/01/09 01:03:15;;;;;;;2.03;1.77;;;;;;;-6.31;85.26;96656.41;6254342;28;20227;-72
2022/01/09 01:06:18;;;;;;;3.10;2.13;;;;;;;-6.27;84.92;96644.31;6254686;28;20221;-72
2022/01/09 01:09:21;;;;;;;2.63;1.57;;;;;;;-6.30;84.58;96642.69;6254459;28;20231;-72
2022/01/09 01:12:25;;;;;;;4.57;2.07;;;;;;;-6.30;84.62;96634.16;6252208;28;20231;-72
2022/01/09 01:15:27;;;;;;;2.87;1.80;;;;;;;-6.36;84.30;96633.44;6250650;28;20224;-72
2022/01/09 01:18:29;;;;;;;3.03;1.90;;;;;;;-6.38;84.72;96621.53;6232174;28;20227;-72
2022/01/09 01:21:32;;;;;;;2.53;1.47;;;;;;;-6.41;83.92;96619.09;6255997;28;20231;-73
2022/01/09 01:24:36;;;;;;;2.83;1.57;;;;;;;-6.42;84.83;96614.84;6252586;28;20227;-72
2022/01/09 01:27:39;;;;;;;2.10;1.67;;;;;;;-6.40;84.22;96602.81;6254013;28;20248;-72
2022/01/09 01:30:41;;;;;;;2.73;1.43;;;;;;;-6.43;84.23;96602.88;6254351;28;20226;-72
2022/01/09 01:33:44;;;;;;;2.53;1.90;;;;;;;-6.50;84.73;96576.59;6251993;28;20227;-72
2022/01/09 01:36:45;;;;;;;2.57;1.80;;;;;;;-6.53;84.29;96571.53;6238470;28;20242;-72
2022/01/09 01:39:48;;;;;;;6.83;3.27;;;;;;;-6.56;84.21;96560.53;6252691;28;20229;-72
2022/01/09 01:42:50;;;;;;;2.37;1.60;;;;;;;-6.60;83.65;96549.53;6254143;28;20305;-72
2022/01/09 01:45:52;;;;;;;2.20;1.63;;;;;;;-6.57;83.55;96551.97;6247247;28;20278;-72
2022/01/09 01:48:54;;;;;;;3.20;1.30;;;;;;;-6.50;83.96;96544.97;6236409;28;20231;-73
2022/01/09 01:51:56;;;;;;;1.77;1.30;;;;;;;-6.52;84.16;96539.03;6229452;28;20256;-73
2022/01/09 01:54:58;;;;;;;1.73;1.40;;;;;;;-6.52;83.81;96544.16;6248205;28;20234;-72
2022/01/09 01:58:00;;;;;;;2.37;1.70;;;;;;;-6.51;84.06;96535.56;6251715;28;20318;-72
2022/01/09 02:01:02;;;;;;;3.83;1.60;;;;;;;-6.50;83.31;96532.13;6235188;28;20710;-72
2022/01/09 02:04:05;;;;;;;3.10;1.63;;;;;;;-6.48;83.46;96525.19;6253991;28;20238;-72
2022/01/09 02:07:08;;;;;;;2.97;1.53;;;;;;;-6.45;83.68;96512.28;6252100;28;20230;-73
2022/01/09 02:10:10;;;;;;;1.80;1.50;;;;;;;-6.46;83.24;96526.00;6235689;28;20234;-72
2022/01/09 02:13:12;;;;;;;4.07;1.30;;;;;;;-6.49;83.87;96516.69;6251690;28;20238;-72
2022/01/09 02:16:18;;;;;;;1.40;1.20;;;;;;;-6.51;82.88;96513.31;6242975;28;20235;-73
2022/01/09 02:19:21;;;;;;;2.10;1.50;;;;;;;-6.51;83.12;96500.50;6249881;28;20226;-73
2022/01/09 02:22:27;;;;;;;1.60;1.30;;;;;;;-6.51;83.82;96494.53;6252856;28;20237;-73
2022/01/09 02:25:29;;;;;;;2.23;1.40;;;;;;;-6.49;83.79;96493.59;6251013;28;20238;-72
2022/01/09 02:28:31;;;;;;;2.93;1.60;;;;;;;-6.47;83.43;96488.38;6253206;28;20238;-72
2022/01/09 02:31:35;;;;;;;1.37;1.20;;;;;;;-6.47;83.01;96483.25;6252626;28;20263;-72
2022/01/09 02:34:37;;;;;;;4.07;1.60;;;;;;;-6.50;83.24;96475.69;6242282;28;20593;-73
2022/01/09 02:37:39;;;;;;;2.83;1.30;;;;;;;-6.50;82.93;96475.69;6230398;28;20578;-72
2022/01/09 02:40:41;;;;;;;2.10;1.27;;;;;;;-6.53;82.98;96463.78;6252067;28;20241;-73
2022/01/09 02:43:44;;;;;;;8.27;1.50;;;;;;;-6.51;83.58;96449.19;6252895;28;20728;-73
2022/01/09 02:49:53;;;;;;;4.40;1.50;;;;;;;-6.47;82.98;96442.19;6227622;28;20274;-73
2022/01/09 02:52:58;;;;;;;3.40;1.53;;;;;;;-6.43;82.95;96423.25;6242311;28;20605;-73
2022/01/09 02:56:03;;;;;;;2.10;1.50;;;;;;;-6.36;82.98;96420.41;6253337;28;20234;-72
2022/01/09 02:59:04;;;;;;;2.57;1.53;;;;;;;-6.38;82.41;96409.38;6252198;28;20219;-73
2022/01/09 03:02:06;;;;;;;1.63;0.93;;;;;;;-6.36;82.73;96406.75;6251627;28;20231;-73
2022/01/09 03:05:10;;;;;;;1.80;0.97;;;;;;;-6.37;82.24;96403.34;6251028;28;20230;-72
2022/01/09 03:08:12;;;;;;;2.80;1.40;;;;;;;-6.37;82.85;96392.25;6239995;28;20731;-72
2022/01/09 03:11:14;;;;;;;2.23;1.50;;;;;;;-6.34;82.43;96392.13;6250517;28;20241;-73
2022/01/09 03:14:16;;;;;;;1.50;1.40;;;;;;;-6.34;82.49;96385.28;6252427;28;20235;-73
2022/01/09 03:17:18;;;;;;;2.37;1.17;;;;;;;-6.34;83.00;96379.31;6248595;28;20235;-73
2022/01/09 03:20:23;;;;;;;3.10;1.37;;;;;;;-6.34;82.91;96385.28;6252033;28;20624;-73
2022/01/09 03:23:25;;;;;;;2.80;1.40;;;;;;;-6.38;82.52;96370.03;6254002;28;20591;-72
2022/01/09 03:26:27;;;;;;;2.60;1.10;;;;;;;-6.42;82.86;96366.75;6256584;28;20237;-73
2022/01/09 03:29:29;;;;;;;2.03;1.30;;;;;;;-6.43;82.82;96375.34;6257112;28;20238;-73
2022/01/09 03:32:31;;;;;;;1.73;1.10;;;;;;;-6.41;82.68;96371.00;6255737;28;20230;-73
2022/01/09 03:35:33;;;;;;;1.53;1.03;;;;;;;-6.39;82.73;96355.56;6238311;28;20235;-71
2022/01/09 03:38:35;;;;;;;2.03;1.10;;;;;;;-6.39;82.70;96358.13;6236614;28;20241;-73
2022/01/09 03:41:37;;;;;;;1.10;0.83;;;;;;;-6.37;82.85;96356.31;6254728;28;20238;-73
2022/01/09 03:44:39;;;;;;;1.53;1.10;;;;;;;-6.38;82.80;96346.94;6255691;28;20244;-70
2022/01/09 03:47:42;;;;;;;1.77;1.30;;;;;;;-6.37;82.40;96346.88;6233774;28;20707;-73
2022/01/09 03:50:50;;;;;;;1.40;1.30;;;;;;;-6.36;82.10;96340.84;6231332;28;20254;-73
2022/01/09 03:53:52;;;;;;;1.83;1.17;;;;;;;-6.34;82.78;96327.97;6238669;28;20231;-73
2022/01/09 03:56:54;;;;;;;1.80;1.23;;;;;;;-6.34;82.69;96320.28;6256698;28;20734;-73
2022/01/09 03:59:56;;;;;;;1.97;1.20;;;;;;;-6.36;82.37;96312.63;6256340;28;20238;-73
2022/01/09 04:02:58;;;;;;;2.60;1.43;;;;;;;-6.34;82.34;96308.28;6254335;28;20233;-73
2022/01/09 04:06:01;;;;;;;3.83;1.20;;;;;;;-6.33;82.19;96301.44;6255800;28;20235;-73
2022/01/09 04:09:08;;;;;;;2.33;1.33;;;;;;;-6.32;82.05;96303.09;6254216;28;20227;-74
2022/01/09 04:12:31;;;;;;;1.50;1.00;;;;;;;-6.29;81.91;96297.88;6256082;28;20239;-73
2022/01/09 04:15:33;;;;;;;1.10;1.00;;;;;;;-6.23;82.46;96295.06;6251754;28;20235;-73
2022/01/09 04:18:35;;;;;;;1.93;1.20;;;;;;;-6.18;82.18;96293.16;6241434;28;20266;-73
2022/01/09 04:21:36;;;;;;;1.33;1.00;;;;;;;-6.16;82.50;96295.66;6254596;28;20219;-74
2022/01/09 04:24:38;;;;;;;2.07;1.50;;;;;;;-6.14;82.10;96296.44;6255814;28;20600;-74
2022/01/09 04:27:42;;;;;;;2.37;1.10;;;;;;;-6.12;82.21;96292.09;6255487;28;20226;-73
2022/01/09 04:30:45;;;;;;;3.07;1.43;;;;;;;-6.10;82.56;96291.16;6255200;28;20227;-73
2022/01/09 04:33:47;;;;;;;1.90;1.10;;;;;;;-6.10;82.17;96291.16;6251567;28;20226;-73
2022/01/09 04:36:48;;;;;;;1.40;1.20;;;;;;;-6.07;82.71;96282.47;6230117;28;20273;-73
2022/01/09 04:39:52;;;;;;;2.27;1.40;;;;;;;-6.05;82.09;96280.69;6245359;28;20219;-73
2022/01/09 04:42:58;;;;;;;2.87;1.20;;;;;;;-6.04;82.27;96278.09;6254137;28;20227;-74
2022/01/09 04:46:00;;;;;;;1.37;1.03;;;;;;;-5.99;82.43;96281.28;6246650;28;20224;-71
2022/01/09 04:49:02;;;;;;;2.53;1.10;;;;;;;-5.97;82.33;96266.69;6230406;28;20227;-74
2022/01/09 04:52:06;;;;;;;1.60;1.00;;;;;;;-6.00;82.28;96261.69;6234066;28;20222;-74
2022/01/09 04:55:08;;;;;;;1.77;1.30;;;;;;;-6.00;82.54;96253.97;6254854;28;20721;-74
2022/01/09 04:58:10;;;;;;;2.07;1.27;;;;;;;-6.02;82.78;96252.34;6205307;28;20700;-73
2022/01/09 05:01:12;;;;;;;2.47;1.60;;;;;;;-6.03;82.64;96253.25;6229587;28;20234;-74
2022/01/09 05:04:14;;;;;;;3.27;1.60;;;;;;;-6.07;81.76;96249.94;6254164;28;20218;-74
2022/01/09 05:07:16;;;;;;;2.80;1.87;;;;;;;-6.08;82.13;96243.13;6255917;28;20227;-74
2022/01/09 05:10:18;;;;;;;2.27;1.33;;;;;;;-6.07;81.67;96247.38;6254173;28;20891;-74
2022/01/09 05:13:20;;;;;;;2.00;1.37;;;;;;;-6.05;82.02;96247.31;6253491;28;20231;-73
2022/01/09 05:16:22;;;;;;;2.10;1.50;;;;;;;-6.06;82.66;96246.50;6247975;28;20230;-72
2022/01/09 05:19:28;;;;;;;1.70;1.60;;;;;;;-6.06;82.34;96249.06;6254768;28;20296;-74
2022/01/09 05:22:30;;;;;;;1.40;1.20;;;;;;;-6.04;82.19;96249.00;6254393;28;20223;-74
2022/01/09 05:25:32;;;;;;;1.70;1.20;;;;;;;-6.04;81.81;96243.88;6253869;28;20584;-74
2022/01/09 05:28:34;;;;;;;2.00;1.40;;;;;;;-6.04;82.02;96247.28;6236727;28;20714;-74
2022/01/09 05:31:36;;;;;;;2.20;2.00;;;;;;;-6.08;82.44;96253.41;6253422;28;20237;-74
2022/01/09 05:34:38;;;;;;;2.93;1.40;;;;;;;-6.07;82.01;96249.94;6244761;28;20224;-74
2022/01/09 05:37:41;;;;;;;3.23;1.43;;;;;;;-6.06;82.18;96256.75;6229332;28;20223;-74
2022/01/09 05:40:42;;;;;;;1.70;1.43;;;;;;;-6.06;82.33;96249.06;6233531;28;20726;-73
2022/01/09 05:43:44;;;;;;;2.63;1.70;;;;;;;-6.06;82.50;96246.50;6254315;28;20229;-74
2022/01/09 05:46:46;;;;;;;2.53;1.70;;;;;;;-6.04;82.11;96256.69;6238335;28;20232;-74
2022/01/09 05:49:48;;;;;;;2.40;1.70;;;;;;;-6.02;81.96;96248.06;6228982;28;20328;-73
2022/01/09 05:52:50;;;;;;;3.33;1.73;;;;;;;-6.01;82.11;96242.03;6228261;28;20227;-75
2022/01/09 05:55:52;;;;;;;3.53;1.83;;;;;;;-6.01;82.17;96243.75;6246582;28;20230;-74
2022/01/09 05:58:54;;;;;;;2.50;1.80;;;;;;;-6.03;82.31;96236.09;6252610;28;20598;-74
2022/01/09 06:01:57;;;;;;;3.67;2.00;;;;;;;-6.00;82.18;96230.88;6252412;28;20230;-74
2022/01/09 06:04:59;;;;;;;2.53;1.70;;;;;;;-5.97;82.28;96229.88;6253415;28;20219;-74
2022/01/09 06:08:01;;;;;;;1.80;1.50;;;;;;;-5.96;82.26;96229.00;6251787;28;20231;-74
2022/01/09 06:11:03;;;;;;;1.60;1.40;;;;;;;-5.99;81.79;96224.81;6252229;28;20235;-73
2022/01/09 06:14:05;;;;;;;2.60;1.60;;;;;;;-5.97;82.27;96224.75;6252318;28;20238;-74
2022/01/09 06:17:07;;;;;;;3.13;1.87;;;;;;;-5.98;82.45;96230.78;6236481;28;20265;-74
2022/01/09 06:20:11;;;;;;;2.30;1.50;;;;;;;-6.01;82.14;96228.34;6248923;28;20241;-74
2022/01/09 06:23:16;;;;;;;3.23;1.83;;;;;;;-6.04;82.06;96229.28;6253433;28;20222;-74
2022/01/09 06:26:18;;;;;;;2.43;1.83;;;;;;;-6.06;81.98;96225.94;6252588;28;20225;-73
2022/01/09 06:29:20;;;;;;;5.17;3.20;;;;;;;-6.07;82.62;96226.00;6253481;28;20257;-74
2022/01/09 06:32:24;;;;;;;4.77;3.07;;;;;;;-6.05;82.30;96222.50;6252523;28;20231;-73
2022/01/09 06:35:26;;;;;;;6.47;3.10;;;;;;;-6.05;82.54;96221.66;6236025;28;20366;-73
2022/01/09 06:38:28;;;;;;;6.77;3.43;;;;;;;-6.03;82.46;96222.44;6229141;28;20226;-74
2022/01/09 06:41:31;;;;;;;5.37;3.30;;;;;;;-6.02;82.22;96217.25;6252361;28;20227;-74
2022/01/09 06:44:33;;;;;;;4.40;2.90;;;;;;;-6.00;82.40;96220.59;6251782;28;20231;-74
2022/01/09 06:47:35;;;;;;;5.13;3.23;;;;;;;-5.99;82.48;96224.81;6245566;28;20223;-74
2022/01/09 06:50:38;;;;;;;6.70;3.80;;;;;;;-5.94;82.10;96219.50;6228531;28;20220;-74
2022/01/09 06:53:39;;;;;;;6.57;4.57;;;;;;;-5.91;82.34;96221.13;6241238;28;20227;-74
2022/01/09 06:56:42;;;;;;;7.97;4.60;;;;;;;-5.90;82.21;96220.22;6252696;28;20654;-71
2022/01/09 06:59:44;;;;;;;9.77;6.30;;;;;;;-5.87;81.99;96230.34;6255569;28;20304;-74
2022/01/09 07:02:46;;;;;;;16.20;8.73;;;;;;;-5.81;82.29;96224.97;6257616;28;20235;-73
2022/01/09 07:05:49;;;;;;;12.20;8.57;;;;;;;-5.74;82.25;96224.66;6258249;28;20222;-74
2022/01/09 07:08:50;;;;;;;17.37;10.00;;;;;;;-5.66;81.91;96237.19;6257303;28;20707;-74
2022/01/09 07:11:52;;;;;;;12.53;8.43;;;;;;;-5.59;81.94;96243.78;6257261;28;20236;-75
2022/01/09 07:14:54;;;;;;;15.80;9.80;;;;;;;-5.51;82.20;96246.88;6257285;28;20255;-74
2022/01/09 07:17:56;;;;;;;17.10;10.40;;;;;;;-5.44;81.66;96256.00;6247587;28;20304;-74
2022/01/09 07:20:58;;;;;;;19.00;10.37;;;;;;;-5.37;81.03;96256.59;6255915;28;20219;-74
2022/01/09 07:24:00;;;;;;;15.77;10.30;;;;;;;-5.31;81.60;96262.34;6256202;28;20763;-74
2022/01/09 07:27:05;;;;;;;19.40;11.60;;;;;;;-5.21;81.29;96273.06;6256408;28;20230;-74
2022/01/09 07:30:08;;;;;;;18.30;11.47;;;;;;;-5.11;80.78;96268.38;6257252;28;20218;-74
2022/01/09 07:33:10;;;;;;;19.20;11.73;;;;;;;-5.05;81.10;96276.69;6256265;28;20231;-75
2022/01/09 07:36:14;;;;;;;19.77;12.17;;;;;;;-4.98;81.21;96283.22;6234125;28;20682;-74
2022/01/09 07:39:16;;;;;;;17.80;11.70;;;;;;;-4.93;80.72;96283.06;6251204;28;20310;-74
2022/01/09 07:42:18;;;;;;;17.60;10.97;;;;;;;-4.85;80.78;96279.25;6257158;28;20211;-74
2022/01/09 07:45:24;;;;;;;19.07;11.20;;;;;;;-4.74;80.52;96281.38;6252273;28;20218;-74
2022/01/09 07:48:26;;;;;;;18.70;10.03;;;;;;;-4.67;80.69;96282.78;6240370;28;20292;-74
2022/01/09 07:51:28;;;;;;;18.10;11.93;;;;;;;-4.58;80.48;96281.53;6258962;28;20230;-75
2022/01/09 07:54:50;;;;;;;17.10;10.33;;;;;;;-4.51;79.77;96275.25;6256110;28;20223;-74
2022/01/09 07:57:52;;;;;;;16.17;10.70;;;;;;;-4.47;79.81;96263.88;6256552;28;20222;-73
2022/01/09 08:00:55;;;;;;;18.00;11.07;;;;;;;-4.39;80.07;96263.56;6255398;28;20231;-74
2022/01/09 08:03:57;;;;;;;17.63;10.77;;;;;;;-4.31;79.91;96259.75;6232002;28;20235;-75
2022/01/09 08:06:59;;;;;;;16.30;9.93;;;;;;;-4.21;79.46;96266.16;6230658;28;20691;-73
2022/01/09 08:10:02;;;;;;;18.17;10.47;;;;;;;-4.12;79.16;96272.63;6249228;28;20280;-74
2022/01/09 08:13:10;;;;;;;16.83;9.17;;;;;;;-4.02;79.40;96273.06;6255743;28;20239;-74
2022/01/09 08:16:12;;;;;;;16.93;10.67;;;;;;;-3.96;79.38;96271.03;6246628;28;20231;-74
2022/01/09 08:19:15;;;;;;;15.80;8.23;;;;;;;-3.90;79.37;96265.59;6236741;28;20643;-74
2022/01/09 08:22:17;;;;;;;15.27;9.20;;;;;;;-3.80;78.86;96269.44;6255248;28;20238;-74
2022/01/09 08:25:19;;;;;;;13.23;8.33;;;;;;;-3.73;79.38;96268.22;6255876;28;20258;-74
2022/01/09 08:28:21;;;;;;;13.40;8.30;;;;;;;-3.63;79.65;96266.06;6255308;28;20235;-75
2022/01/09 08:31:23;;;;;;;18.27;9.63;;;;;;;-3.56;79.37;96254.53;6256235;28;20240;-73
2022/01/09 08:34:25;;;;;;;14.20;9.30;;;;;;;-3.49;78.96;96248.16;6246871;28;20232;-74
2022/01/09 08:37:27;;;;;;;17.97;10.37;;;;;;;-3.42;78.71;96244.41;6231060;28;20246;-74
2022/01/09 08:40:29;;;;;;;19.83;12.50;;;;;;;-3.37;79.22;96250.16;6243251;28;20239;-74
2022/01/09 08:43:31;;;;;;;21.73;14.83;;;;;;;-3.36;79.22;96254.41;6255292;28;20231;-74
2022/01/09 08:46:35;;;;;;;21.80;14.50;;;;;;;-3.40;79.01;96252.06;6247498;28;20237;-75
2022/01/09 08:49:37;;;;;;;24.73;14.63;;;;;;;-3.42;78.80;96256.47;6231970;28;20215;-75
2022/01/09 08:52:39;;;;;;;25.70;14.80;;;;;;;-3.36;79.32;96261.31;6227231;28;20239;-76
2022/01/09 08:55:41;;;;;;;24.40;14.47;;;;;;;-3.27;79.58;96271.19;6255356;28;20230;-74
2022/01/09 08:58:44;;;;;;;29.93;15.30;;;;;;;-3.23;79.14;96272.72;6254095;28;20230;-74
2022/01/09 09:02:03;;;;;;;21.00;14.97;;;;;;;-3.21;78.89;96288.13;6255866;28;20223;-74
2022/01/09 09:05:05;;;;;;;24.90;15.27;;;;;;;-3.15;79.29;96275.75;6252910;28;20235;-74
2022/01/09 09:08:07;;;;;;;22.37;14.90;;;;;;;-3.06;79.14;96298.53;6254010;28;20242;-73
2022/01/09 09:11:11;;;;;;;24.00;15.57;;;;;;;-2.99;78.38;96297.31;6253501;28;20226;-75
2022/01/09 09:14:13;;;;;;;24.07;16.33;;;;;;;-2.90;78.96;96295.22;6253396;28;20246;-74
2022/01/09 09:17:15;;;;;;;27.20;16.53;;;;;;;-2.94;78.32;96312.59;6241010;28;20230;-74
2022/01/09 09:20:17;;;;;;;29.03;17.13;;;;;;;-2.94;78.44;96299.69;6254326;28;20698;-74
2022/01/09 09:23:20;;;;;;;28.40;17.50;;;;;;;-2.98;78.55;96311.88;6252236;28;20238;-74
2022/01/09 09:26:22;;;;;;;23.77;16.23;;;;;;;-2.92;78.28;96310.78;6252809;28;20373;-74
2022/01/09 09:29:24;;;;;;;23.87;16.97;;;;;;;-2.86;78.33;96310.44;6253891;28;20242;-74
2022/01/09 09:32:26;;;;;;;23.53;16.33;;;;;;;-2.77;77.98;96322.06;6253529;28;20230;-74
2022/01/09 09:35:28;;;;;;;25.60;16.73;;;;;;;-2.73;77.91;96319.28;6231561;28;20227;-74
2022/01/09 09:38:31;;;;;;;27.80;17.27;;;;;;;-2.71;78.11;96322.63;6254704;28;20230;-74
2022/01/09 09:41:33;;;;;;;27.27;17.00;;;;;;;-2.65;78.32;96311.97;6259960;28;20289;-73
2022/01/09 09:44:36;;;;;;;28.53;17.90;;;;;;;-2.58;77.74;96319.41;6258296;28;20227;-75
2022/01/09 09:47:40;;;;;;;29.03;17.63;;;;;;;-2.53;77.55;96320.00;6229959;28;20267;-73
2022/01/09 09:50:42;;;;;;;28.53;18.53;;;;;;;-2.42;77.39;96315.16;6204726;28;20228;-74
2022/01/09 09:53:44;;;;;;;29.70;18.93;;;;;;;-2.42;77.45;96336.66;6247979;28;20246;-71
2022/01/09 09:56:46;;;;;;;29.13;18.67;;;;;;;-2.37;77.54;96321.72;6254085;28;20718;-74
2022/01/09 09:59:48;;;;;;;27.60;17.10;;;;;;;-2.30;77.58;96320.53;6253899;28;20238;-72
2022/01/09 10:02:52;;;;;;;26.37;16.30;;;;;;;-2.22;76.75;96327.03;6252075;28;20226;-73
2022/01/09 10:05:55;;;;;;;25.13;16.67;;;;;;;-2.17;77.44;96328.47;6253709;28;20788;-74
2022/01/09 10:08:56;;;;;;;28.23;15.97;;;;;;;-2.01;77.01;96318.19;6253156;28;20221;-73
2022/01/09 10:12:04;;;;;;;27.07;17.33;;;;;;;-1.88;76.32;96303.66;6234103;28;20234;-74
2022/01/09 10:15:09;;;;;;;27.73;17.17;;;;;;;-1.80;76.08;96317.06;6251831;28;20231;-74
2022/01/09 10:18:11;;;;;;;25.07;16.23;;;;;;;-1.72;76.25;96320.06;6203418;28;20232;-73
2022/01/09 10:21:16;;;;;;;28.10;16.20;;;;;;;-1.61;76.06;96319.47;6247595;28;20207;-73
2022/01/09 10:24:18;;;;;;;23.33;15.67;;;;;;;-1.56;75.34;96318.31;6251698;28;20242;-74
2022/01/09 10:27:35;;;;;;;25.53;15.63;;;;;;;-1.53;75.14;96322.47;6252432;28;20223;-73
2022/01/09 10:30:40;;;;;;;25.47;16.27;;;;;;;-1.50;74.95;96317.94;6252409;28;20231;-73
2022/01/09 10:34:02;;;;;;;21.93;15.07;;;;;;;-1.38;74.89;96324.22;6248230;28;20246;-74
2022/01/09 10:37:04;;;;;;;22.13;14.90;;;;;;;-1.32;74.64;96323.06;6238430;28;20242;-73
2022/01/09 10:40:09;;;;;;;23.33;14.60;;;;;;;-1.31;73.97;96327.31;6255315;28;20238;-73
2022/01/09 10:43:17;;;;;;;21.13;14.67;;;;;;;-1.27;74.12;96331.38;6251430;28;20222;-73
2022/01/09 10:46:30;;;;;;;23.03;14.47;;;;;;;-1.21;73.83;96323.31;6242950;28;20235;-74
2022/01/09 10:49:49;;;;;;;22.93;14.50;;;;;;;-1.05;73.47;96325.88;6228168;28;20530;-74
2022/01/09 10:52:51;;;;;;;21.97;14.60;;;;;;;-0.92;73.00;96319.91;6203164;28;20236;-74
2022/01/09 10:56:10;;;;;;;23.43;14.33;;;;;;;-0.82;72.10;96330.59;6249743;28;20222;-74
2022/01/09 10:59:12;;;;;;;19.83;13.53;;;;;;;-0.79;71.76;96338.16;6253261;28;20230;-73
2022/01/09 11:02:20;;;;;;;20.13;13.07;;;;;;;-0.77;72.03;96323.38;6251980;28;20254;-72
2022/01/09 11:05:22;;;;;;;23.37;15.10;;;;;;;-0.84;70.79;96330.66;6249737;28;20234;-73
2022/01/09 11:08:24;;;;;;;25.70;15.07;;;;;;;-0.86;71.53;96327.31;6250046;28;20653;-73
2022/01/09 11:11:40;;;;;;;21.60;14.60;;;;;;;-0.76;72.34;96330.22;6252094;28;20219;-74
2022/01/09 11:14:43;;;;;;;26.93;15.23;;;;;;;-0.69;71.24;96323.75;6250263;28;20230;-73
2022/01/09 11:17:46;;;;;;;23.13;13.93;;;;;;;-0.70;71.05;96321.28;6234091;28;20230;-73
2022/01/09 11:20:48;;;;;;;29.37;15.53;;;;;;;-0.67;71.02;96326.28;6252034;28;20235;-73
2022/01/09 11:24:16;;;;;;;25.17;15.20;;;;;;;-0.57;70.96;96320.47;6233515;28;20246;-74
2022/01/09 11:27:18;;;;;;;23.23;15.13;;;;;;;-0.56;71.05;96329.06;6251779;28;20227;-73
2022/01/09 11:30:45;;;;;;;23.13;14.63;;;;;;;-0.50;70.85;96333.94;6252263;28;20223;-73
2022/01/09 11:34:19;;;;;;;27.17;16.10;;;;;;;-0.37;70.70;96332.25;6248181;28;20224;-73
2022/01/09 11:37:40;;;;;;;28.93;16.67;;;;;;;-0.09;70.40;96332.28;6250268;28;20231;-73
2022/01/09 11:40:42;;;;;;;23.90;16.33;;;;;;;0.19;69.87;96338.44;6251931;28;20231;-74
2022/01/09 11:44:01;;;;;;;27.60;15.83;;;;;;;0.41;68.60;96333.59;6251920;28;20233;-73
2022/01/09 11:47:07;;;;;;;21.70;14.73;;;;;;;0.57;67.98;96323.94;6239618;28;20251;-73
2022/01/09 11:50:09;;;;;;;24.13;15.40;;;;;;;0.62;68.14;96337.44;6233102;28;20239;-73
2022/01/09 11:53:11;;;;;;;27.87;15.63;;;;;;;0.56;67.62;96334.41;6243596;28;20226;-74
2022/01/09 11:56:13;;;;;;;23.60;14.47;;;;;;;0.47;68.12;96340.16;6256263;28;20238;-74
2022/01/09 11:59:19;;;;;;;25.87;16.33;;;;;;;0.49;68.76;96340.91;6255690;28;20312;-73
2022/01/09 12:02:27;;;;;;;24.47;15.67;;;;;;;0.58;68.81;96333.41;6255793;28;20234;-74
2022/01/09 12:05:29;;;;;;;22.53;15.17;;;;;;;0.80;67.19;96330.25;6256782;28;20233;-74
2022/01/09 12:09:09;;;;;;;21.13;14.20;;;;;;;0.99;66.90;96325.59;6255511;28;20230;-73
2022/01/09 12:12:14;;;;;;;20.73;12.87;;;;;;;1.16;66.93;96324.50;6255289;28;20227;-74
2022/01/09 12:15:34;;;;;;;16.63;11.93;;;;;;;1.16;65.34;96329.69;6253307;28;20235;-73
2022/01/09 12:18:44;;;;;;;15.73;11.03;;;;;;;1.18;65.70;96330.44;6253264;28;20231;-74
2022/01/09 12:21:49;;;;;;;15.43;11.07;;;;;;;1.29;65.92;96324.53;6255721;28;20284;-73
2022/01/09 12:24:51;;;;;;;16.57;10.93;;;;;;;1.33;65.60;96323.38;6253818;28;20227;-73
2022/01/09 12:28:03;;;;;;;14.97;10.43;;;;;;;1.35;65.29;96330.16;6253515;28;20223;-73
2022/01/09 12:31:06;;;;;;;16.20;10.50;;;;;;;1.34;65.32;96333.69;6256193;28;20231;-72
2022/01/09 12:34:12;;;;;;;15.60;10.43;;;;;;;1.16;65.21;96324.50;6247900;28;20235;-73
2022/01/09 12:37:14;;;;;;;14.83;10.13;;;;;;;1.07;66.46;96332.88;6229189;28;20273;-74
2022/01/09 12:40:17;;;;;;;15.40;10.13;;;;;;;1.03;65.87;96336.59;6231439;28;20235;-74
2022/01/09 12:43:23;;;;;;;13.43;9.10;;;;;;;1.02;65.89;96327.97;6253331;28;20311;-74
2022/01/09 12:46:27;;;;;;;16.63;10.17;;;;;;;1.08;65.65;96334.56;6243947;28;20421;-73
2022/01/09 12:49:29;;;;;;;15.80;9.53;;;;;;;1.11;65.13;96326.53;6230363;28;20232;-74
2022/01/09 12:52:30;;;;;;;15.93;10.97;;;;;;;1.09;65.43;96339.66;6246443;28;20302;-74
2022/01/09 12:55:36;;;;;;;15.07;10.63;;;;;;;1.09;66.50;96336.22;6252305;28;20308;-73
2022/01/09 12:59:07;;;;;;;18.80;11.47;;;;;;;1.14;68.37;96323.75;6255172;28;20725;-74
2022/01/09 13:02:10;;;;;;;16.63;9.87;;;;;;;1.32;68.07;96319.13;6251287;28;20223;-73
2022/01/09 13:05:12;;;;;;;7.73;6.20;;;;;;;1.57;71.40;96328.75;6254493;28;20242;-74
2022/01/09 13:08:18;;;;;;;10.60;7.10;;;;;;;1.80;71.10;96333.25;6255191;28;20216;-72
2022/01/09 13:11:26;;;;;;;2.43;1.83;;;;;;;1.94;74.21;96337.53;6255041;28;20223;-74
2022/01/09 13:14:29;;;;;;;1.77;1.50;;;;;;;2.26;74.26;96340.53;6254804;28;20242;-73
2022/01/09 13:17:45;;;;;;;0.77;0.77;;;;;;;2.47;74.55;96333.84;6234608;28;20644;-73
2022/01/09 13:20:47;;;;;;;1.60;0.80;;;;;;;2.60;74.06;96337.25;6254515;28;20265;-74
2022/01/09 13:24:13;;;;;;;0.60;0.50;;;;;;;2.74;74.06;96333.69;6252643;28;20481;-73
2022/01/09 13:27:20;;;;;;;0.40;0.40;;;;;;;2.81;73.77;96346.16;6254512;28;20337;-73
2022/01/09 13:30:21;;;;;;;0.40;0.40;;;;;;;2.82;74.29;96349.59;6253917;28;20227;-74
2022/01/09 13:33:24;;;;;;;0.50;0.50;;;;;;;2.85;74.02;96352.00;6253857;28;20233;-72
2022/01/09 13:36:40;;;;;;;0.60;0.50;;;;;;;2.92;73.78;96350.59;6228388;28;20237;-74
2022/01/09 13:39:44;;;;;;;0.67;0.53;;;;;;;2.92;73.78;96354.03;6253974;28;20622;-73
2022/01/09 13:42:46;;;;;;;0.87;0.60;;;;;;;2.90;73.84;96355.09;6251522;28;20238;-72
2022/01/09 13:45:48;;;;;;;0.70;0.70;;;;;;;2.91;73.64;96357.59;6251262;28;20219;-72
2022/01/09 13:48:50;;;;;;;0.93;0.60;;;;;;;2.95;73.61;96360.81;6235658;28;20227;-73
2022/01/09 13:51:52;;;;;;;0.60;0.60;;;;;;;3.00;73.73;96358.69;6229192;28;20228;-73
2022/01/09 13:55:03;;;;;;;0.67;0.60;;;;;;;3.10;73.22;96367.53;6249664;28;20644;-73
2022/01/09 13:58:13;;;;;;;0.60;0.60;;;;;;;3.12;72.99;96363.03;6251408;28;20972;-73
2022/01/09 14:01:39;;;;;;;0.50;0.50;;;;;;;3.15;73.02;96362.00;6253093;28;20293;-73
2022/01/09 14:04:43;;;;;;;1.13;0.63;;;;;;;3.25;72.91;96370.81;6252152;28;20705;-72
2022/01/09 14:07:49;;;;;;;0.77;0.77;;;;;;;3.27;73.17;96356.75;6252982;28;20726;-72
2022/01/09 14:10:51;;;;;;;0.60;0.57;;;;;;;3.38;72.30;96374.22;6253066;28;20234;-73
2022/01/09 14:13:53;;;;;;;0.43;0.40;;;;;;;3.43;71.90;96374.69;6250369;28;20324;-73
2022/01/09 14:16:54;;;;;;;0.57;0.47;;;;;;;3.46;71.77;96376.25;6242005;28;20220;-73
2022/01/09 14:20:00;;;;;;;0.70;0.47;;;;;;;3.47;71.55;96362.28;6251305;28;20605;-74
2022/01/09 14:23:10;;;;;;;0.50;0.50;;;;;;;3.41;72.07;96371.38;6253066;28;20235;-73
2022/01/09 14:26:16;;;;;;;0.60;0.50;;;;;;;3.32;72.17;96377.25;6251094;28;20233;-74